createdAt,value
2022-12-16T00:00:09.173Z,5.03
2022-12-16T00:03:06.437Z,5.75
2022-12-16T00:06:04.556Z,4.05
2022-12-16T00:09:02.016Z,4.40
2022-12-16T00:11:58.819Z,5.85
2022-12-16T00:14:55.926Z,4.55
2022-12-16T00:17:52.749Z,5.25
2022-12-16T00:20:54.856Z,4.07
2022-12-16T00:23:51.760Z,5.53
2022-12-16T00:26:48.793Z,7.20
2022-12-16T00:29:45.617Z,5.82
2022-12-16T00:32:42.947Z,4.55
2022-12-16T00:35:44.520Z,5.88
2022-12-16T00:38:42.875Z,4.63
2022-12-16T00:41:39.794Z,7.35
2022-12-16T00:44:36.707Z,6.45
2022-12-16T00:47:33.662Z,7.15
2022-12-16T00:50:30.539Z,7.43
2022-12-16T00:53:27.905Z,5.65
2022-12-16T00:56:25.140Z,3.50
2022-12-16T00:59:21.996Z,5.43
2022-12-16T01:02:19.035Z,5.88
2022-12-16T01:05:20.812Z,6.47
2022-12-16T01:08:17.665Z,4.10
2022-12-16T01:11:17.056Z,5.72
2022-12-16T01:14:14.026Z,4.45
2022-12-16T01:17:10.856Z,3.97
2022-12-16T01:20:09.020Z,6.05
2022-12-16T01:23:06.123Z,7.20
2022-12-16T01:26:03.413Z,4.22
2022-12-16T01:29:00.273Z,5.75
2022-12-16T01:31:57.226Z,6.47
2022-12-16T01:34:55.842Z,6.70
2022-12-16T01:37:52.823Z,5.93
2022-12-16T01:40:51.751Z,6.50
2022-12-16T01:43:48.831Z,6.57
2022-12-16T01:47:05.457Z,5.93
2022-12-16T01:50:10.560Z,7.85
2022-12-16T01:53:07.617Z,6.80
2022-12-16T01:56:04.715Z,5.38
2022-12-16T01:59:03.269Z,7.45
2022-12-16T02:02:00.662Z,3.85
2022-12-16T02:05:16.692Z,3.95
2022-12-16T02:08:17.086Z,4.43
2022-12-16T02:14:50.491Z,6.50
2022-12-16T02:18:09.354Z,5.18
2022-12-16T02:21:25.026Z,6.03
2022-12-16T02:24:40.143Z,4.75
2022-12-16T02:27:52.350Z,6.57
2022-12-16T02:30:57.448Z,4.50
2022-12-16T02:34:38.392Z,5.05
2022-12-16T02:38:06.632Z,6.00
2022-12-16T02:41:09.274Z,5.80
2022-12-16T02:44:09.651Z,7.03
2022-12-16T02:50:03.486Z,4.70
2022-12-16T02:53:02.365Z,4.53
2022-12-16T02:56:30.202Z,5.07
2022-12-16T02:59:43.950Z,4.22
2022-12-16T03:03:05.751Z,5.95
2022-12-16T03:06:04.810Z,4.20
2022-12-16T03:09:06.908Z,5.53
2022-12-16T03:12:10.929Z,5.03
2022-12-16T03:15:10.236Z,5.00
2022-12-16T03:18:10.291Z,6.22
2022-12-16T03:21:09.294Z,5.63
2022-12-16T03:24:10.661Z,6.43
2022-12-16T03:28:05.901Z,7.93
2022-12-16T03:31:17.708Z,5.03
2022-12-16T03:34:36.492Z,6.45
2022-12-16T03:37:37.181Z,5.57
2022-12-16T03:40:35.917Z,6.97
2022-12-16T03:43:33.429Z,8.20
2022-12-16T03:46:32.034Z,8.30
2022-12-16T03:49:28.981Z,8.57
2022-12-16T03:52:25.813Z,5.97
2022-12-16T03:55:22.736Z,7.82
2022-12-16T03:58:20.578Z,5.32
2022-12-16T04:01:17.468Z,7.25
2022-12-16T04:04:14.340Z,7.35
2022-12-16T04:07:26.123Z,8.45
2022-12-16T04:10:42.917Z,7.82
2022-12-16T04:13:58.377Z,6.20
2022-12-16T04:17:14.127Z,7.43
2022-12-16T04:20:36.539Z,6.30
2022-12-16T04:23:54.305Z,8.40
2022-12-16T04:27:15.362Z,7.25
2022-12-16T04:30:20.513Z,5.00
2022-12-16T04:33:36.633Z,6.53
2022-12-16T04:36:51.911Z,9.20
2022-12-16T04:40:07.367Z,6.30
2022-12-16T04:43:22.569Z,5.70
2022-12-16T04:46:38.222Z,9.00
2022-12-16T04:49:53.712Z,6.82
2022-12-16T04:53:12.818Z,10.73
2022-12-16T04:56:28.605Z,8.93
2022-12-16T04:59:43.837Z,9.02
2022-12-16T05:02:58.988Z,9.52
2022-12-16T05:06:14.193Z,7.10
2022-12-16T05:09:29.879Z,9.18
2022-12-16T05:12:45.326Z,6.18
2022-12-16T05:16:00.595Z,9.20
2022-12-16T05:19:16.062Z,8.68
2022-12-16T05:22:31.467Z,9.20
2022-12-16T05:25:47.719Z,9.45
2022-12-16T05:29:03.113Z,8.13
2022-12-16T05:32:19.047Z,10.27
2022-12-16T05:35:34.449Z,11.52
2022-12-16T05:38:49.669Z,10.10
2022-12-16T05:42:05.539Z,12.32
2022-12-16T05:45:20.752Z,9.57
2022-12-16T05:48:35.873Z,11.43
2022-12-16T05:51:51.256Z,11.85
2022-12-16T05:55:06.465Z,12.60
2022-12-16T05:58:22.185Z,11.15
2022-12-16T06:01:37.502Z,10.35
2022-12-16T06:04:53.130Z,9.73
2022-12-16T06:08:12.885Z,10.00
2022-12-16T06:11:28.243Z,11.35
2022-12-16T06:14:43.535Z,14.00
2022-12-16T06:18:06.522Z,13.45
2022-12-16T06:21:22.296Z,15.52
2022-12-16T06:24:38.050Z,8.50
2022-12-16T06:27:53.281Z,26.33
2022-12-16T06:31:09.411Z,31.10
2022-12-16T06:34:25.009Z,17.35
2022-12-16T06:37:40.177Z,11.95
2022-12-16T06:40:56.015Z,11.60
2022-12-16T06:44:11.904Z,14.30
2022-12-16T06:47:27.776Z,13.77
2022-12-16T06:50:45.136Z,13.80
2022-12-16T06:54:03.296Z,12.95
2022-12-16T06:57:18.613Z,14.00
2022-12-16T07:00:34.571Z,17.15
2022-12-16T07:03:50.292Z,9.23
2022-12-16T07:07:06.200Z,15.80
2022-12-16T07:10:22.830Z,13.30
2022-12-16T07:13:38.755Z,15.85
2022-12-16T07:16:54.124Z,5.72
2022-12-16T07:20:09.681Z,15.68
2022-12-16T07:23:25.130Z,10.85
2022-12-16T07:26:40.357Z,10.60
2022-12-16T07:29:55.632Z,14.15
2022-12-16T07:33:10.835Z,14.05
2022-12-16T07:36:31.219Z,10.10
2022-12-16T07:43:10.049Z,10.90
2022-12-16T07:46:25.959Z,10.38
2022-12-16T07:49:41.571Z,14.98
2022-12-16T07:52:56.799Z,8.63
2022-12-16T07:56:12.216Z,12.85
2022-12-16T07:59:27.251Z,17.17
2022-12-16T08:02:42.541Z,12.90
2022-12-16T08:05:58.385Z,17.08
2022-12-16T08:09:14.174Z,12.73
2022-12-16T08:12:29.596Z,13.63
2022-12-16T08:15:45.092Z,15.82
2022-12-16T08:19:00.181Z,16.27
2022-12-16T08:22:15.648Z,14.18
2022-12-16T08:25:31.008Z,15.52
2022-12-16T08:28:49.899Z,17.15
2022-12-16T08:32:05.037Z,16.05
2022-12-16T08:35:21.130Z,8.18
2022-12-16T08:38:36.387Z,22.45
2022-12-16T08:41:51.603Z,18.73
2022-12-16T08:45:08.445Z,7.43
2022-12-16T08:48:24.989Z,9.82
2022-12-16T08:51:40.697Z,7.47
2022-12-16T08:54:56.181Z,18.23
2022-12-16T08:58:13.504Z,12.38
2022-12-16T09:01:29.143Z,10.90
2022-12-16T09:04:44.849Z,13.27
2022-12-16T09:08:00.449Z,15.05
2022-12-16T09:11:20.095Z,17.35
2022-12-16T09:14:35.282Z,10.10
2022-12-16T09:17:50.366Z,8.85
2022-12-16T09:21:06.581Z,5.65
2022-12-16T09:24:21.969Z,17.63
2022-12-16T09:27:37.250Z,13.20
2022-12-16T09:30:52.395Z,13.45
2022-12-16T09:34:08.311Z,18.08
2022-12-16T09:37:23.952Z,15.65
2022-12-16T09:40:39.407Z,14.85
2022-12-16T09:44:30.175Z,14.25
2022-12-16T09:48:05.494Z,15.25
2022-12-16T09:51:24.383Z,12.90
2022-12-16T09:54:45.711Z,17.83
2022-12-16T09:58:02.575Z,17.20
2022-12-16T10:01:19.304Z,17.40
2022-12-16T10:04:35.588Z,16.08
2022-12-16T10:07:56.491Z,14.13
2022-12-16T10:11:27.651Z,17.17
2022-12-16T10:14:54.489Z,13.27
2022-12-16T10:18:11.379Z,12.68
2022-12-16T10:21:36.901Z,14.80
2022-12-16T10:25:34.061Z,12.90
2022-12-16T10:29:06.231Z,9.02
2022-12-16T10:32:58.935Z,12.40
2022-12-16T10:36:15.245Z,10.07
2022-12-16T10:39:55.052Z,8.55
2022-12-16T10:43:24.427Z,14.90
2022-12-16T10:46:46.614Z,13.27
2022-12-16T10:50:01.780Z,16.15
2022-12-16T10:53:45.913Z,10.00
2022-12-16T10:57:26.939Z,14.27
2022-12-16T11:01:05.679Z,17.65
2022-12-16T11:04:52.490Z,13.18
2022-12-16T11:08:12.785Z,12.38
2022-12-16T11:11:53.127Z,16.85
2022-12-16T11:18:47.242Z,14.18
2022-12-16T11:22:03.412Z,14.93
2022-12-16T11:25:39.832Z,16.05
2022-12-16T11:28:55.206Z,15.65
2022-12-16T11:32:35.877Z,14.48
2022-12-16T11:39:12.426Z,16.50
2022-12-16T11:42:38.869Z,16.20
2022-12-16T11:45:54.312Z,16.88
2022-12-16T11:49:24.951Z,18.35
2022-12-16T11:52:42.081Z,18.73
2022-12-16T11:56:06.950Z,15.40
2022-12-16T11:59:59.163Z,14.52
2022-12-16T12:03:33.243Z,15.20
2022-12-16T12:07:24.323Z,8.45
2022-12-16T12:15:11.502Z,16.60
2022-12-16T12:18:59.692Z,19.85
2022-12-16T12:22:20.246Z,14.57
2022-12-16T12:30:34.483Z,15.35
2022-12-16T12:34:23.985Z,20.58
2022-12-16T12:38:04.878Z,19.05
2022-12-16T12:41:47.220Z,16.35
2022-12-16T12:45:32.231Z,14.73
2022-12-16T12:49:30.032Z,17.13
2022-12-16T12:53:22.611Z,18.00
2022-12-16T12:57:04.476Z,14.23
2022-12-16T13:00:34.027Z,15.02
2022-12-16T13:04:05.128Z,9.10
2022-12-16T13:07:21.001Z,12.93
2022-12-16T13:10:39.070Z,10.40
2022-12-16T13:13:55.694Z,13.75
2022-12-16T13:17:20.322Z,15.98
2022-12-16T13:20:50.815Z,14.10
2022-12-16T13:24:07.205Z,14.65
2022-12-16T13:27:22.503Z,11.80
2022-12-16T13:30:42.679Z,15.52
2022-12-16T13:33:58.095Z,17.70
2022-12-16T13:37:22.840Z,188.27
2022-12-16T13:40:42.925Z,190.52
2022-12-16T13:44:15.186Z,60.53
2022-12-16T13:47:59.334Z,110.72
2022-12-16T13:51:18.796Z,91.45
2022-12-16T13:54:34.771Z,162.20
2022-12-16T13:58:01.169Z,90.90
2022-12-16T14:01:25.248Z,114.70
2022-12-16T14:05:01.597Z,77.85
2022-12-16T14:12:32.784Z,51.55
2022-12-16T14:16:04.285Z,39.22
2022-12-16T14:19:49.679Z,147.35
2022-12-16T14:23:56.281Z,47.90
2022-12-16T14:27:14.101Z,103.90
2022-12-16T14:30:44.361Z,28.30
2022-12-16T14:33:59.473Z,23.15
2022-12-16T14:37:17.164Z,42.95
2022-12-16T14:40:48.889Z,72.93
2022-12-16T14:44:04.744Z,59.22
2022-12-16T14:47:20.484Z,26.25
2022-12-16T14:50:48.639Z,84.90
2022-12-16T14:54:11.854Z,87.53
2022-12-16T14:57:31.795Z,24.40
2022-12-16T15:00:47.513Z,22.70
2022-12-16T15:04:07.991Z,27.35
2022-12-16T15:07:31.941Z,23.25
2022-12-16T15:10:47.871Z,25.17
2022-12-16T15:14:04.237Z,26.25
2022-12-16T15:17:20.474Z,28.42
2022-12-16T15:20:43.882Z,23.80
2022-12-16T15:24:03.258Z,22.85
2022-12-16T15:27:37.100Z,21.50
2022-12-16T15:30:58.889Z,25.00
2022-12-16T15:34:44.195Z,25.50
2022-12-16T15:38:04.460Z,20.92
2022-12-16T15:41:22.917Z,24.80
2022-12-16T15:44:43.336Z,22.25
2022-12-16T15:51:13.859Z,21.27
2022-12-16T15:54:40.174Z,17.15
2022-12-16T15:57:57.315Z,21.00
2022-12-16T16:01:17.224Z,22.63
2022-12-16T16:04:48.127Z,24.55
2022-12-16T16:08:04.982Z,22.98
2022-12-16T16:11:21.446Z,22.05
2022-12-16T16:14:36.577Z,20.40
2022-12-16T16:17:51.758Z,25.70
2022-12-16T16:21:08.799Z,28.98
2022-12-16T16:24:24.187Z,28.52
2022-12-16T16:27:39.887Z,24.98
2022-12-16T16:30:55.317Z,20.65
2022-12-16T16:34:10.811Z,20.33
2022-12-16T16:37:39.178Z,28.13
2022-12-16T16:41:07.917Z,28.65
2022-12-16T16:44:33.630Z,31.05
2022-12-16T16:47:50.466Z,26.38
2022-12-16T16:51:05.750Z,22.52
2022-12-16T16:54:20.890Z,23.23
2022-12-16T16:57:36.052Z,18.27
2022-12-16T17:00:51.535Z,23.33
2022-12-16T17:04:07.119Z,18.38
2022-12-16T17:07:22.821Z,19.58
2022-12-16T17:10:38.731Z,24.55
2022-12-16T17:13:53.926Z,44.55
2022-12-16T17:17:09.217Z,45.22
2022-12-16T17:20:25.904Z,20.95
2022-12-16T17:23:41.382Z,24.77
2022-12-16T17:27:04.472Z,57.60
2022-12-16T17:30:20.682Z,65.18
2022-12-16T17:33:36.401Z,53.50
2022-12-16T17:36:52.212Z,44.75
2022-12-16T17:40:07.360Z,63.92
2022-12-16T17:43:23.726Z,58.88
2022-12-16T17:46:38.783Z,33.08
2022-12-16T17:49:54.356Z,18.60
2022-12-16T17:53:17.669Z,18.05
2022-12-16T17:56:32.850Z,18.77
2022-12-16T17:59:51.806Z,16.88
2022-12-16T18:03:10.051Z,15.70
2022-12-16T18:06:26.134Z,16.42
2022-12-16T18:09:41.605Z,16.20
2022-12-16T18:12:56.876Z,16.42
2022-12-16T18:16:12.595Z,13.45
2022-12-16T18:19:31.155Z,16.95
2022-12-16T18:22:46.495Z,14.77
2022-12-16T18:26:01.598Z,14.57
2022-12-16T18:29:17.366Z,19.05
2022-12-16T18:32:35.326Z,3.63
2022-12-16T18:35:50.960Z,16.48
2022-12-16T18:39:13.758Z,19.60
2022-12-16T18:42:31.439Z,12.75
2022-12-16T18:45:46.617Z,13.15
2022-12-16T18:49:02.242Z,14.23
2022-12-16T18:52:17.677Z,7.13
2022-12-16T18:55:33.561Z,15.93
2022-12-16T18:58:51.678Z,10.18
2022-12-16T19:02:07.598Z,14.35
2022-12-16T19:05:23.371Z,14.85
2022-12-16T19:08:39.080Z,13.15
2022-12-16T19:11:54.697Z,18.90
2022-12-16T19:15:10.280Z,11.60
2022-12-16T19:18:25.728Z,10.20
2022-12-16T19:21:41.158Z,6.45
2022-12-16T19:24:56.950Z,18.05
2022-12-16T19:28:12.365Z,17.45
2022-12-16T19:31:32.521Z,12.70
2022-12-16T19:34:47.853Z,10.48
2022-12-16T19:38:03.122Z,13.68
2022-12-16T19:41:18.294Z,9.43
2022-12-16T19:44:33.642Z,16.50
2022-12-16T19:47:49.304Z,15.43
2022-12-16T19:51:04.418Z,12.50
2022-12-16T19:54:20.254Z,12.23
2022-12-16T19:57:35.395Z,12.93
2022-12-16T20:00:51.170Z,11.82
2022-12-16T20:04:09.891Z,11.80
2022-12-16T20:07:25.197Z,12.15
2022-12-16T20:10:40.412Z,13.23
2022-12-16T20:13:56.214Z,11.05
2022-12-16T20:17:11.648Z,11.77
2022-12-16T20:20:27.492Z,10.82
2022-12-16T20:23:42.679Z,10.55
2022-12-16T20:26:58.371Z,8.82
2022-12-16T20:30:13.455Z,9.85
2022-12-16T20:33:35.465Z,11.32
2022-12-16T20:36:50.612Z,13.02
2022-12-16T20:40:07.070Z,10.95
2022-12-16T20:43:23.149Z,9.02
2022-12-16T20:46:38.407Z,5.57
2022-12-16T20:49:57.246Z,10.48
2022-12-16T20:53:13.230Z,10.15
2022-12-16T20:56:28.942Z,13.32
2022-12-16T20:59:44.163Z,11.25
2022-12-16T21:02:59.387Z,15.07
2022-12-16T21:06:14.785Z,14.77
2022-12-16T21:09:30.452Z,10.82
2022-12-16T21:12:46.436Z,12.13
2022-12-16T21:16:01.722Z,10.77
2022-12-16T21:19:17.616Z,13.25
2022-12-16T21:22:32.909Z,14.48
2022-12-16T21:25:48.022Z,6.30
2022-12-16T21:29:03.321Z,10.98
2022-12-16T21:32:18.528Z,12.93
2022-12-16T21:35:34.143Z,13.57
2022-12-16T21:38:49.338Z,9.65
2022-12-16T21:42:04.994Z,11.30
2022-12-16T21:45:20.763Z,15.07
2022-12-16T21:48:36.207Z,12.98
2022-12-16T21:51:51.711Z,11.07
2022-12-16T21:55:14.844Z,13.55
2022-12-16T21:58:30.959Z,15.85
2022-12-16T22:01:46.934Z,12.40
2022-12-16T22:05:01.977Z,14.85
2022-12-16T22:08:17.475Z,11.98
2022-12-16T22:11:33.761Z,16.23
2022-12-16T22:14:48.900Z,14.38
2022-12-16T22:18:04.013Z,14.27
2022-12-16T22:21:22.519Z,16.00
2022-12-16T22:24:38.137Z,18.20
2022-12-16T22:27:53.384Z,15.75
2022-12-16T22:31:15.994Z,17.77
2022-12-16T22:34:31.642Z,14.50
2022-12-16T22:37:47.420Z,12.27
2022-12-16T22:41:03.150Z,13.45
2022-12-16T22:44:18.354Z,14.43
2022-12-16T22:47:34.202Z,15.63
2022-12-16T22:50:50.879Z,15.75
2022-12-16T22:54:07.631Z,15.30
2022-12-16T22:57:23.079Z,13.45
2022-12-16T23:00:38.792Z,20.20
2022-12-16T23:03:56.467Z,14.82
2022-12-16T23:07:11.833Z,17.48
2022-12-16T23:10:28.182Z,14.27
2022-12-16T23:13:45.933Z,16.48
2022-12-16T23:17:01.003Z,19.58
2022-12-16T23:20:16.818Z,15.85
2022-12-16T23:23:31.923Z,13.48
2022-12-16T23:26:47.039Z,13.68
2022-12-16T23:30:02.779Z,13.25
2022-12-16T23:33:20.736Z,17.45
2022-12-16T23:36:36.180Z,21.92
2022-12-16T23:39:51.425Z,20.88
2022-12-16T23:43:07.445Z,27.30
2022-12-16T23:46:23.047Z,25.10
2022-12-16T23:49:38.180Z,14.40
2022-12-16T23:52:53.839Z,11.75
2022-12-16T23:56:18.268Z,11.77
2022-12-16T23:59:33.358Z,11.32
